Time;durP1;ratioP1;P1;durP2;ratioP2;P2;SDS_P1;SDS_P2;PMS_P1;PMS_P2;Temp;Humidity;BMP_temperature;BMP_pressure;BME280_temperature;BME280_humidity;BME280_pressure;Samples;Min_cycle;Max_cycle;Signal;HPM_P1;HPM_P2
2023/08/08 00:04:08;;;;;;;1.88;1.77;;;;;;;;;;10290562;28;20076;-63
2023/08/08 00:09:08;;;;;;;2.05;1.85;;;;;;;;;;10287960;28;20081;-63
2023/08/08 00:14:06;;;;;;;3.75;1.90;;;;;;;;;;10289403;28;20076;-63
2023/08/08 00:19:04;;;;;;;2.70;2.10;;;;;;;;;;10288103;28;20083;-63
2023/08/08 00:24:02;;;;;;;6.13;2.50;;;;;;;;;;10289916;28;20064;-61
2023/08/08 00:29:02;;;;;;;3.90;2.17;;;;;;;;;;10289650;28;20068;-62
2023/08/08 00:34:00;;;;;;;2.03;1.80;;;;;;;;;;10290000;28;20080;-62
2023/08/08 00:38:58;;;;;;;3.72;1.75;;;;;;;;;;10273879;28;20076;-63
2023/08/08 00:43:57;;;;;;;5.03;1.90;;;;;;;;;;10286511;28;20071;-63
2023/08/08 00:48:56;;;;;;;2.95;1.55;;;;;;;;;;10296749;28;20068;-62
2023/08/08 00:53:55;;;;;;;3.42;1.88;;;;;;;;;;10297618;28;20080;-62
2023/08/08 00:58:53;;;;;;;3.00;1.98;;;;;;;;;;10297891;28;20075;-62
2023/08/08 01:03:52;;;;;;;4.43;1.38;;;;;;;;;;10295645;28;20095;-62
2023/08/08 01:08:56;;;;;;;2.05;1.88;;;;;;;;;;10301424;28;20091;-62
2023/08/08 01:13:55;;;;;;;3.10;1.60;;;;;;;;;;10293659;28;20083;-62
2023/08/08 01:18:54;;;;;;;1.60;1.50;;;;;;;;;;10295935;28;20073;-62
2023/08/08 01:23:57;;;;;;;2.05;1.77;;;;;;;;;;10298849;28;20048;-62
2023/08/08 01:28:56;;;;;;;3.00;1.98;;;;;;;;;;10279132;28;20086;-62
2023/08/08 01:33:54;;;;;;;1.60;1.50;;;;;;;;;;10295813;28;20079;-62
2023/08/08 01:38:55;;;;;;;2.38;1.75;;;;;;;;;;10292580;28;20104;-62
2023/08/08 01:43:53;;;;;;;1.85;1.52;;;;;;;;;;10295984;28;20064;-62
2023/08/08 01:48:53;;;;;;;1.77;1.67;;;;;;;;;;10295159;28;20073;-62
2023/08/08 01:53:52;;;;;;;2.97;1.70;;;;;;;;;;10301432;28;20077;-62
2023/08/08 01:58:50;;;;;;;2.58;1.80;;;;;;;;;;10294774;28;20080;-62
2023/08/08 02:03:53;;;;;;;2.20;1.50;;;;;;;;;;10290678;28;20489;-62
2023/08/08 02:08:52;;;;;;;2.58;1.88;;;;;;;;;;10289020;28;20091;-62
2023/08/08 02:13:50;;;;;;;1.83;1.55;;;;;;;;;;10292421;28;20061;-62
2023/08/08 02:18:49;;;;;;;2.50;2.30;;;;;;;;;;10292264;28;20079;-62
2023/08/08 02:23:48;;;;;;;3.33;2.10;;;;;;;;;;10291049;28;20084;-63
2023/08/08 02:28:46;;;;;;;3.60;1.88;;;;;;;;;;10298641;28;20044;-62
2023/08/08 02:33:46;;;;;;;2.20;2.00;;;;;;;;;;10292198;28;20041;-62
2023/08/08 02:38:44;;;;;;;2.08;1.88;;;;;;;;;;10290766;28;20081;-62
2023/08/08 02:43:45;;;;;;;4.53;2.08;;;;;;;;;;10291489;28;20075;-62
2023/08/08 02:48:43;;;;;;;3.42;2.20;;;;;;;;;;10278708;28;20079;-63
2023/08/08 02:53:42;;;;;;;2.60;2.40;;;;;;;;;;10296992;28;20520;-62
2023/08/08 02:58:40;;;;;;;2.08;1.80;;;;;;;;;;10291087;28;20064;-63
2023/08/08 03:03:40;;;;;;;3.40;2.25;;;;;;;;;;10289525;28;20061;-63
2023/08/08 03:08:39;;;;;;;7.40;2.20;;;;;;;;;;10286238;28;20440;-63
2023/08/08 03:13:37;;;;;;;2.30;2.10;;;;;;;;;;10289658;28;20045;-63
2023/08/08 03:18:36;;;;;;;5.25;2.17;;;;;;;;;;10298281;28;20736;-64
2023/08/08 03:23:35;;;;;;;2.92;2.40;;;;;;;;;;10289461;28;20290;-63
2023/08/08 03:28:34;;;;;;;2.83;2.55;;;;;;;;;;10291066;28;20072;-63
2023/08/08 03:33:32;;;;;;;2.60;2.25;;;;;;;;;;10288271;28;20430;-63
2023/08/08 03:38:33;;;;;;;4.28;1.80;;;;;;;;;;10290318;28;20082;-61
2023/08/08 03:43:33;;;;;;;2.08;1.88;;;;;;;;;;10297719;28;20740;-62
2023/08/08 03:48:31;;;;;;;3.83;2.00;;;;;;;;;;10290612;28;20079;-62
2023/08/08 03:53:29;;;;;;;2.42;2.22;;;;;;;;;;10290618;28;20072;-61
2023/08/08 03:58:28;;;;;;;4.03;1.83;;;;;;;;;;10298138;28;20052;-62
2023/08/08 04:03:27;;;;;;;2.60;2.35;;;;;;;;;;10289386;28;20083;-63
2023/08/08 04:08:26;;;;;;;2.75;2.25;;;;;;;;;;10293292;28;20489;-62
2023/08/08 04:13:25;;;;;;;2.40;2.20;;;;;;;;;;10285770;28;20102;-61
2023/08/08 04:18:23;;;;;;;4.38;2.40;;;;;;;;;;10290867;28;20068;-62
2023/08/08 04:23:25;;;;;;;3.50;2.78;;;;;;;;;;10293213;28;20072;-62
2023/08/08 04:28:23;;;;;;;3.60;2.20;;;;;;;;;;10296874;28;20069;-62
2023/08/08 04:33:21;;;;;;;2.40;2.20;;;;;;;;;;10295690;28;20072;-61
2023/08/08 04:38:19;;;;;;;2.40;2.20;;;;;;;;;;10297633;28;20084;-61
2023/08/08 04:43:19;;;;;;;2.60;2.40;;;;;;;;;;10297433;28;20079;-61
2023/08/08 04:48:17;;;;;;;3.47;2.60;;;;;;;;;;10297533;28;20079;-62
2023/08/08 04:53:15;;;;;;;2.50;2.30;;;;;;;;;;10294599;28;20064;-63
2023/08/08 04:58:14;;;;;;;3.85;2.60;;;;;;;;;;10297561;28;20068;-62
2023/08/08 05:03:13;;;;;;;4.30;3.90;;;;;;;;;;10297435;28;20069;-62
2023/08/08 05:08:12;;;;;;;2.58;2.38;;;;;;;;;;10296791;28;20075;-62
2023/08/08 05:13:10;;;;;;;3.63;3.00;;;;;;;;;;10296020;28;20072;-63
2023/08/08 05:18:08;;;;;;;2.88;2.63;;;;;;;;;;10293678;28;20096;-62
2023/08/08 05:23:08;;;;;;;7.22;6.43;;;;;;;;;;10296125;28;20545;-63
2023/08/08 05:28:06;;;;;;;5.10;3.40;;;;;;;;;;10293955;28;20080;-62
2023/08/08 05:33:05;;;;;;;3.70;2.90;;;;;;;;;;10294159;28;20528;-62
2023/08/08 05:38:03;;;;;;;4.43;3.03;;;;;;;;;;10294860;28;20080;-62
2023/08/08 05:43:03;;;;;;;3.67;3.38;;;;;;;;;;10292173;28;20498;-62
2023/08/08 05:48:01;;;;;;;4.65;3.03;;;;;;;;;;10292543;28;20072;-62
2023/08/08 05:52:59;;;;;;;2.97;2.78;;;;;;;;;;10293389;28;20072;-63
2023/08/08 05:57:58;;;;;;;10.25;6.10;;;;;;;;;;10293543;28;20514;-62
2023/08/08 06:02:57;;;;;;;7.57;6.15;;;;;;;;;;10293874;28;20076;-62
2023/08/08 06:07:56;;;;;;;3.10;2.70;;;;;;;;;;10289776;28;20076;-62
2023/08/08 06:12:54;;;;;;;8.40;6.53;;;;;;;;;;10291537;28;20513;-62
2023/08/08 06:17:52;;;;;;;4.18;3.78;;;;;;;;;;10291383;28;20083;-62
2023/08/08 06:22:52;;;;;;;4.38;2.45;;;;;;;;;;10292802;28;20080;-63
2023/08/08 06:27:50;;;;;;;2.83;2.60;;;;;;;;;;10292295;28;20076;-63
2023/08/08 06:32:48;;;;;;;6.60;3.08;;;;;;;;;;10286414;28;20068;-63
2023/08/08 06:37:47;;;;;;;5.97;2.83;;;;;;;;;;10289313;28;20069;-62
2023/08/08 06:42:46;;;;;;;3.22;2.92;;;;;;;;;;10286649;28;20076;-62
2023/08/08 06:47:45;;;;;;;5.10;3.25;;;;;;;;;;10279661;28;20065;-63
2023/08/08 06:52:43;;;;;;;4.30;2.83;;;;;;;;;;10280417;28;20063;-62
2023/08/08 06:57:41;;;;;;;3.70;3.15;;;;;;;;;;10275293;28;20079;-62
2023/08/08 07:02:41;;;;;;;5.88;3.13;;;;;;;;;;10287690;28;20088;-63
2023/08/08 07:07:39;;;;;;;3.42;3.10;;;;;;;;;;10278641;28;20075;-63
2023/08/08 07:12:39;;;;;;;3.05;2.75;;;;;;;;;;10283344;28;20087;-64
2023/08/08 07:17:37;;;;;;;4.93;3.92;;;;;;;;;;10288615;28;20072;-63
2023/08/08 07:22:38;;;;;;;3.95;2.92;;;;;;;;;;10286230;28;20518;-62
2023/08/08 07:27:36;;;;;;;2.95;2.75;;;;;;;;;;10291216;28;20071;-63
2023/08/08 07:32:34;;;;;;;3.25;2.90;;;;;;;;;;10289462;28;20083;-63
2023/08/08 07:37:33;;;;;;;2.95;2.67;;;;;;;;;;10284695;28;20076;-62
2023/08/08 07:42:35;;;;;;;3.28;2.97;;;;;;;;;;10285350;28;20076;-62
2023/08/08 07:47:33;;;;;;;6.00;4.45;;;;;;;;;;10285507;28;20083;-61
2023/08/08 07:52:31;;;;;;;5.22;2.40;;;;;;;;;;10287446;28;20071;-62
2023/08/08 07:57:30;;;;;;;6.28;2.60;;;;;;;;;;10290595;28;20064;-61
2023/08/08 08:02:30;;;;;;;4.70;4.10;;;;;;;;;;10287577;28;20080;-61
2023/08/08 08:07:28;;;;;;;28.33;25.25;;;;;;;;;;10287003;28;20072;-61
2023/08/08 08:12:26;;;;;;;2.95;2.30;;;;;;;;;;10289348;28;20072;-62
2023/08/08 08:17:25;;;;;;;13.10;11.90;;;;;;;;;;10291004;28;20073;-62
2023/08/08 08:22:24;;;;;;;3.42;2.55;;;;;;;;;;10285266;28;20084;-62
2023/08/08 08:27:23;;;;;;;5.95;3.05;;;;;;;;;;10284117;28;20474;-62
2023/08/08 08:32:21;;;;;;;6.43;5.32;;;;;;;;;;10284330;28;20488;-62
2023/08/08 08:37:19;;;;;;;4.35;2.85;;;;;;;;;;10284372;28;20068;-62
2023/08/08 08:42:19;;;;;;;7.55;2.55;;;;;;;;;;10288277;28;20073;-63
2023/08/08 08:47:19;;;;;;;4.43;2.40;;;;;;;;;;10287682;28;20076;-63
2023/08/08 08:52:17;;;;;;;4.32;3.05;;;;;;;;;;10285891;28;20065;-62
2023/08/08 08:57:16;;;;;;;2.78;2.17;;;;;;;;;;10276687;28;20057;-64
2023/08/08 09:02:16;;;;;;;2.25;1.95;;;;;;;;;;10282785;28;20079;-61
2023/08/08 09:07:15;;;;;;;4.68;2.20;;;;;;;;;;10288210;28;20080;-63
2023/08/08 09:12:13;;;;;;;5.07;2.80;;;;;;;;;;10294177;28;20072;-62
2023/08/08 09:17:15;;;;;;;2.67;2.47;;;;;;;;;;10292224;28;20065;-62
2023/08/08 09:22:14;;;;;;;2.47;1.70;;;;;;;;;;10285477;28;20569;-62
2023/08/08 09:27:13;;;;;;;2.72;2.08;;;;;;;;;;10293009;28;20477;-63
2023/08/08 09:32:13;;;;;;;4.70;1.90;;;;;;;;;;10291178;28;20512;-63
2023/08/08 09:37:11;;;;;;;6.72;2.00;;;;;;;;;;10293793;28;20080;-63
2023/08/08 09:42:11;;;;;;;2.55;2.30;;;;;;;;;;10294725;28;20083;-60
2023/08/08 09:47:13;;;;;;;2.83;1.40;;;;;;;;;;10292082;28;20076;-62
2023/08/08 09:52:11;;;;;;;1.92;1.63;;;;;;;;;;10278407;28;20505;-62
2023/08/08 09:57:11;;;;;;;6.95;2.00;;;;;;;;;;10292735;28;20075;-62
2023/08/08 10:02:11;;;;;;;5.35;1.60;;;;;;;;;;10294493;28;20088;-62
2023/08/08 10:07:10;;;;;;;3.38;1.63;;;;;;;;;;10288834;28;20369;-62
2023/08/08 10:12:09;;;;;;;2.35;1.25;;;;;;;;;;10291148;28;20076;-62
2023/08/08 10:17:08;;;;;;;1.30;1.08;;;;;;;;;;10286819;28;20087;-62
2023/08/08 10:22:09;;;;;;;1.58;1.48;;;;;;;;;;10289144;28;20095;-62
2023/08/08 10:27:08;;;;;;;1.20;1.20;;;;;;;;;;10292728;28;20072;-62
2023/08/08 10:32:07;;;;;;;1.50;1.40;;;;;;;;;;10290926;28;20068;-63
2023/08/08 10:37:11;;;;;;;2.00;1.52;;;;;;;;;;10291985;28;20085;-62
2023/08/08 10:42:10;;;;;;;4.00;1.13;;;;;;;;;;10287554;28;20471;-63
2023/08/08 10:47:08;;;;;;;0.70;0.70;;;;;;;;;;10289895;28;20075;-63
2023/08/08 10:52:08;;;;;;;2.97;1.23;;;;;;;;;;10291848;28;20078;-63
2023/08/08 10:57:16;;;;;;;1.92;1.25;;;;;;;;;;10291169;28;20072;-63
2023/08/08 11:02:15;;;;;;;1.60;1.35;;;;;;;;;;10288961;28;20104;-63
2023/08/08 11:07:15;;;;;;;1.40;1.30;;;;;;;;;;10289778;28;20076;-62
2023/08/08 11:12:16;;;;;;;2.05;1.20;;;;;;;;;;10291797;28;20064;-63
2023/08/08 11:17:15;;;;;;;1.40;1.30;;;;;;;;;;10288915;28;20264;-63
2023/08/08 11:22:14;;;;;;;1.23;1.13;;;;;;;;;;10291358;28;20080;-62
2023/08/08 11:27:14;;;;;;;2.60;1.40;;;;;;;;;;10291505;28;20079;-64
2023/08/08 11:32:34;;;;;;;1.15;1.00;;;;;;;;;;10288613;28;20107;-64
2023/08/08 11:37:34;;;;;;;3.70;0.88;;;;;;;;;;10281024;28;20072;-63
2023/08/08 11:42:32;;;;;;;1.30;1.20;;;;;;;;;;10289664;28;20079;-63
2023/08/08 11:47:35;;;;;;;2.90;1.17;;;;;;;;;;10290645;28;20087;-62
2023/08/08 11:52:35;;;;;;;5.07;1.13;;;;;;;;;;10291324;28;20357;-63
2023/08/08 11:57:34;;;;;;;1.73;0.88;;;;;;;;;;10287163;28;20187;-64
2023/08/08 12:02:33;;;;;;;1.10;1.00;;;;;;;;;;10282956;28;20080;-63
2023/08/08 12:07:34;;;;;;;0.93;0.93;;;;;;;;;;10289772;28;20078;-63
2023/08/08 12:12:35;;;;;;;2.40;0.90;;;;;;;;;;10289025;28;20079;-64
2023/08/08 12:17:37;;;;;;;1.00;0.80;;;;;;;;;;10287013;28;20084;-65
2023/08/08 12:22:35;;;;;;;1.15;1.08;;;;;;;;;;10289098;28;20088;-65
2023/08/08 12:27:35;;;;;;;1.10;1.00;;;;;;;;;;10288740;28;20076;-65
2023/08/08 12:32:33;;;;;;;16.80;10.82;;;;;;;;;;10288321;28;20083;-65
2023/08/08 12:37:31;;;;;;;1.95;1.55;;;;;;;;;;10289357;28;20079;-65
2023/08/08 12:42:29;;;;;;;2.03;1.55;;;;;;;;;;10279799;28;20075;-65
2023/08/08 12:47:29;;;;;;;2.33;1.92;;;;;;;;;;10287546;28;20069;-68
2023/08/08 12:52:27;;;;;;;2.67;1.00;;;;;;;;;;10296191;28;20072;-67
2023/08/08 12:57:26;;;;;;;1.08;0.82;;;;;;;;;;10294967;28;20082;-64
2023/08/08 13:02:24;;;;;;;2.55;1.90;;;;;;;;;;10295085;28;20068;-63
2023/08/08 13:07:24;;;;;;;6.43;2.45;;;;;;;;;;10294506;28;20071;-63
2023/08/08 13:12:22;;;;;;;10.90;2.60;;;;;;;;;;10297421;28;20075;-63
2023/08/08 13:17:20;;;;;;;7.40;3.60;;;;;;;;;;10295161;28;20072;-63
2023/08/08 13:22:18;;;;;;;4.82;3.20;;;;;;;;;;10292981;28;20533;-64
2023/08/08 13:27:18;;;;;;;3.92;3.22;;;;;;;;;;10295299;28;20076;-64
2023/08/08 13:32:16;;;;;;;6.25;5.13;;;;;;;;;;10269743;28;20080;-63
2023/08/08 13:37:15;;;;;;;5.55;2.40;;;;;;;;;;10279067;28;20532;-63
2023/08/08 13:42:14;;;;;;;1.15;1.05;;;;;;;;;;10281312;28;20071;-63
2023/08/08 13:47:13;;;;;;;2.58;2.38;;;;;;;;;;10273565;28;20495;-64
2023/08/08 13:52:11;;;;;;;6.25;2.58;;;;;;;;;;10278001;28;20052;-63
2023/08/08 13:57:10;;;;;;;4.82;1.85;;;;;;;;;;10283006;28;20087;-62
2023/08/08 14:02:08;;;;;;;6.82;1.70;;;;;;;;;;10288138;28;20073;-63
2023/08/08 14:07:08;;;;;;;1.88;1.63;;;;;;;;;;10280583;28;20677;-62
2023/08/08 14:12:06;;;;;;;2.35;1.60;;;;;;;;;;10275001;28;20707;-63
2023/08/08 14:17:04;;;;;;;4.18;1.98;;;;;;;;;;10276923;28;20087;-63
2023/08/08 14:22:02;;;;;;;2.92;1.52;;;;;;;;;;10293614;28;20072;-63
2023/08/08 14:27:02;;;;;;;3.83;2.38;;;;;;;;;;10292084;28;20076;-63
2023/08/08 14:32:00;;;;;;;4.47;1.42;;;;;;;;;;10286646;28;20293;-63
2023/08/08 14:36:59;;;;;;;4.57;2.67;;;;;;;;;;10286889;28;20078;-63
2023/08/08 14:41:57;;;;;;;3.40;2.30;;;;;;;;;;10290369;28;20087;-63
2023/08/08 14:46:57;;;;;;;2.35;1.80;;;;;;;;;;10290476;28;20068;-63
2023/08/08 14:51:56;;;;;;;5.63;2.80;;;;;;;;;;10291841;28;20466;-63
2023/08/08 14:56:55;;;;;;;6.43;2.00;;;;;;;;;;10289052;28;20080;-63
2023/08/08 15:01:53;;;;;;;3.28;2.38;;;;;;;;;;10260198;28;20064;-64
2023/08/08 15:06:53;;;;;;;2.25;1.58;;;;;;;;;;10268460;28;20069;-64
2023/08/08 15:11:51;;;;;;;2.88;2.08;;;;;;;;;;10273149;28;20068;-63
2023/08/08 15:16:50;;;;;;;4.32;2.60;;;;;;;;;;10290227;28;20064;-63
2023/08/08 15:21:48;;;;;;;3.53;2.25;;;;;;;;;;10289878;28;20079;-64
2023/08/08 15:26:48;;;;;;;2.67;1.95;;;;;;;;;;10275643;28;20163;-63
2023/08/08 15:31:46;;;;;;;2.22;1.90;;;;;;;;;;10283885;28;20068;-64
2023/08/08 15:36:45;;;;;;;5.70;1.63;;;;;;;;;;10273771;28;20068;-64
2023/08/08 15:41:43;;;;;;;3.83;3.42;;;;;;;;;;10270500;28;20158;-63
2023/08/08 15:46:43;;;;;;;5.57;2.50;;;;;;;;;;10274236;28;20068;-64
2023/08/08 15:51:41;;;;;;;3.38;3.08;;;;;;;;;;10264264;28;20065;-64
2023/08/08 15:56:39;;;;;;;6.10;4.43;;;;;;;;;;10265259;28;20584;-64
2023/08/08 16:01:38;;;;;;;3.72;3.20;;;;;;;;;;10268425;28;20072;-64
2023/08/08 16:06:37;;;;;;;5.22;3.38;;;;;;;;;;10283851;28;20706;-64
2023/08/08 16:11:36;;;;;;;8.50;2.17;;;;;;;;;;10263596;28;20068;-64
2023/08/08 16:16:34;;;;;;;7.78;3.17;;;;;;;;;;10275232;28;20083;-64
2023/08/08 16:21:35;;;;;;;4.88;3.35;;;;;;;;;;10290518;28;20457;-64
2023/08/08 16:26:34;;;;;;;9.82;2.60;;;;;;;;;;10284504;28;20498;-64
2023/08/08 16:31:35;;;;;;;3.63;2.95;;;;;;;;;;10289427;28;20060;-63
2023/08/08 16:36:35;;;;;;;4.68;3.53;;;;;;;;;;10278979;28;20076;-63
2023/08/08 16:41:38;;;;;;;6.78;4.57;;;;;;;;;;10297263;28;20084;-63
2023/08/08 16:46:39;;;;;;;7.07;6.10;;;;;;;;;;10293501;28;20075;-63
2023/08/08 16:51:37;;;;;;;12.23;4.50;;;;;;;;;;10272090;28;20068;-65
2023/08/08 16:56:36;;;;;;;5.47;3.75;;;;;;;;;;10277637;28;20064;-64
2023/08/08 17:01:36;;;;;;;5.25;3.10;;;;;;;;;;10284522;28;20068;-65
2023/08/08 17:06:36;;;;;;;5.18;1.63;;;;;;;;;;10291325;28;20084;-64
2023/08/08 17:11:35;;;;;;;6.18;3.00;;;;;;;;;;10290237;28;20064;-63
2023/08/08 17:16:33;;;;;;;3.70;2.35;;;;;;;;;;10285305;28;20076;-64
2023/08/08 17:21:33;;;;;;;4.60;4.20;;;;;;;;;;10284760;28;20473;-64
2023/08/08 17:26:32;;;;;;;6.55;4.05;;;;;;;;;;10280406;28;20091;-64
2023/08/08 17:31:30;;;;;;;8.43;5.03;;;;;;;;;;10277273;28;20071;-64
2023/08/08 17:36:28;;;;;;;3.03;1.70;;;;;;;;;;10292769;28;20088;-64
2023/08/08 17:41:28;;;;;;;5.90;3.60;;;;;;;;;;10283949;28;20506;-64
2023/08/08 17:46:26;;;;;;;5.22;2.35;;;;;;;;;;10266307;28;20072;-64
2023/08/08 17:51:24;;;;;;;2.67;2.47;;;;;;;;;;10271093;28;20107;-64
2023/08/08 17:56:23;;;;;;;2.05;1.88;;;;;;;;;;10273311;28;20060;-63
2023/08/08 18:01:22;;;;;;;2.88;2.58;;;;;;;;;;10271340;28;20073;-64
2023/08/08 18:06:21;;;;;;;3.53;1.63;;;;;;;;;;10269567;28;20075;-64
2023/08/08 18:11:20;;;;;;;3.10;1.92;;;;;;;;;;10284889;28;20069;-65
2023/08/08 18:16:18;;;;;;;3.97;2.42;;;;;;;;;;10280199;28;20084;-64
2023/08/08 18:21:18;;;;;;;1.95;1.48;;;;;;;;;;10277403;28;20064;-64
2023/08/08 18:26:17;;;;;;;1.67;1.58;;;;;;;;;;10277558;28;20065;-65
2023/08/08 18:31:15;;;;;;;2.28;1.75;;;;;;;;;;10271462;28;20068;-64
2023/08/08 18:36:13;;;;;;;1.90;1.15;;;;;;;;;;10279839;28;20076;-64
2023/08/08 18:41:13;;;;;;;1.42;1.33;;;;;;;;;;10267538;28;20449;-65
2023/08/08 18:46:11;;;;;;;2.17;1.98;;;;;;;;;;10281775;28;20533;-65
2023/08/08 18:51:09;;;;;;;1.40;1.27;;;;;;;;;;10278053;28;20057;-65
2023/08/08 18:56:08;;;;;;;1.45;1.35;;;;;;;;;;10275992;28;20069;-65
2023/08/08 19:01:07;;;;;;;1.70;1.60;;;;;;;;;;10277398;28;20088;-66
2023/08/08 19:06:06;;;;;;;1.50;1.40;;;;;;;;;;10265142;28;20073;-64
2023/08/08 19:11:04;;;;;;;2.28;1.10;;;;;;;;;;10259822;28;20063;-65
2023/08/08 19:16:02;;;;;;;5.88;1.30;;;;;;;;;;10282449;28;20501;-66
2023/08/08 19:21:02;;;;;;;2.88;1.23;;;;;;;;;;10278028;28;20090;-65
2023/08/08 19:26:00;;;;;;;1.67;1.30;;;;;;;;;;10284712;28;20095;-65
2023/08/08 19:30:58;;;;;;;1.52;1.40;;;;;;;;;;10282175;28;20073;-66
2023/08/08 19:35:58;;;;;;;0.88;0.77;;;;;;;;;;10279847;28;20095;-65
2023/08/08 19:40:57;;;;;;;1.52;1.42;;;;;;;;;;10278426;28;20079;-62
2023/08/08 19:45:56;;;;;;;1.73;1.38;;;;;;;;;;10265143;28;20085;-62
2023/08/08 19:50:54;;;;;;;1.23;1.13;;;;;;;;;;10273962;28;20061;-62
2023/08/08 19:55:57;;;;;;;1.27;1.00;;;;;;;;;;10274139;28;20072;-63
2023/08/08 20:00:57;;;;;;;1.00;1.00;;;;;;;;;;10271204;28;20079;-63
2023/08/08 20:05:55;;;;;;;1.30;1.10;;;;;;;;;;10284258;28;20076;-63
2023/08/08 20:10:54;;;;;;;1.17;1.08;;;;;;;;;;10267699;28;20498;-64
2023/08/08 20:15:52;;;;;;;1.38;1.20;;;;;;;;;;10263365;28;20065;-63
2023/08/08 20:20:51;;;;;;;1.20;0.85;;;;;;;;;;10275496;28;20513;-63
2023/08/08 20:25:50;;;;;;;1.85;1.13;;;;;;;;;;10277095;28;20088;-65
2023/08/08 20:30:48;;;;;;;1.63;1.20;;;;;;;;;;10286502;28;20564;-64
2023/08/08 20:35:46;;;;;;;1.60;1.00;;;;;;;;;;10289412;28;20068;-64
2023/08/08 20:40:46;;;;;;;2.80;1.92;;;;;;;;;;10284385;28;20288;-65
2023/08/08 20:45:45;;;;;;;1.42;1.33;;;;;;;;;;10284842;28;20083;-64
2023/08/08 20:50:45;;;;;;;1.23;1.20;;;;;;;;;;10288753;28;20075;-65
2023/08/08 20:55:43;;;;;;;1.65;1.55;;;;;;;;;;10291315;28;20529;-64
2023/08/08 21:00:43;;;;;;;1.95;1.35;;;;;;;;;;10289722;28;20061;-63
2023/08/08 21:05:41;;;;;;;1.33;1.23;;;;;;;;;;10284489;28;20076;-64
2023/08/08 21:10:42;;;;;;;1.42;1.33;;;;;;;;;;10295273;28;20446;-64
2023/08/08 21:15:43;;;;;;;2.03;1.83;;;;;;;;;;10282886;28;20075;-64
2023/08/08 21:20:43;;;;;;;3.38;1.70;;;;;;;;;;10292017;28;20505;-64
2023/08/08 21:25:42;;;;;;;1.85;1.60;;;;;;;;;;10293307;28;20083;-64
2023/08/08 21:30:40;;;;;;;1.67;1.58;;;;;;;;;;10292982;28;20483;-64
2023/08/08 21:35:38;;;;;;;2.45;2.20;;;;;;;;;;10296739;28;20060;-64
2023/08/08 21:40:38;;;;;;;2.10;2.00;;;;;;;;;;10291934;28;20508;-63
2023/08/08 21:45:38;;;;;;;2.35;2.15;;;;;;;;;;10290928;28;20517;-63
2023/08/08 21:50:36;;;;;;;2.80;2.03;;;;;;;;;;10291087;28;20064;-63
2023/08/08 21:55:34;;;;;;;2.35;2.15;;;;;;;;;;10292183;28;20324;-64
2023/08/08 22:00:34;;;;;;;3.28;2.35;;;;;;;;;;10293334;28;20065;-64
2023/08/08 22:05:32;;;;;;;1.85;1.75;;;;;;;;;;10292343;28;20064;-64
2023/08/08 22:10:33;;;;;;;2.50;2.30;;;;;;;;;;10293667;28;20072;-65
2023/08/08 22:15:31;;;;;;;2.42;2.22;;;;;;;;;;10292338;28;20470;-64
2023/08/08 22:20:32;;;;;;;2.47;2.28;;;;;;;;;;10294906;28;20450;-64
2023/08/08 22:25:33;;;;;;;2.45;2.30;;;;;;;;;;10294554;28;20386;-64
2023/08/08 22:30:31;;;;;;;2.58;2.38;;;;;;;;;;10292942;28;20469;-63
2023/08/08 22:35:31;;;;;;;2.42;2.22;;;;;;;;;;10292107;28;20079;-63
2023/08/08 22:40:29;;;;;;;2.45;2.25;;;;;;;;;;10292236;28;20653;-64
2023/08/08 22:45:28;;;;;;;2.03;1.92;;;;;;;;;;10277161;28;20064;-63
2023/08/08 22:50:26;;;;;;;2.10;2.00;;;;;;;;;;10283528;28;20064;-63
2023/08/08 22:55:26;;;;;;;1.90;1.80;;;;;;;;;;10278057;28;20080;-64
2023/08/08 23:00:24;;;;;;;2.70;2.20;;;;;;;;;;10291389;28;20076;-63
2023/08/08 23:05:22;;;;;;;2.53;1.85;;;;;;;;;;10289077;28;20076;-63
2023/08/08 23:10:20;;;;;;;2.10;2.00;;;;;;;;;;10284917;28;20544;-63
2023/08/08 23:15:20;;;;;;;2.78;2.58;;;;;;;;;;10285802;28;20065;-63
2023/08/08 23:20:18;;;;;;;2.45;2.25;;;;;;;;;;10291797;28;20091;-63
2023/08/08 23:25:17;;;;;;;2.60;2.38;;;;;;;;;;10291752;28;20548;-63
2023/08/08 23:30:16;;;;;;;2.85;2.53;;;;;;;;;;10290087;28;20068;-63
2023/08/08 23:35:15;;;;;;;2.67;2.47;;;;;;;;;;10291277;28;20079;-63
2023/08/08 23:40:15;;;;;;;3.65;2.22;;;;;;;;;;10288002;28;20544;-63
2023/08/08 23:45:14;;;;;;;4.53;2.92;;;;;;;;;;10279764;28;20473;-63
2023/08/08 23:50:14;;;;;;;2.78;2.47;;;;;;;;;;10273734;28;20080;-63
2023/08/08 23:55:14;;;;;;;3.17;2.85;;;;;;;;;;10280560;28;20068;-63
